Time;durP1;ratioP1;P1;durP2;ratioP2;P2;SDS_P1;SDS_P2;PMS_P1;PMS_P2;Temp;Humidity;BMP_temperature;BMP_pressure;BME280_temperature;BME280_humidity;BME280_pressure;Samples;Min_cycle;Max_cycle;Signal;HPM_P1;HPM_P2
2022/06/30 00:01:27;;;;;;;6.15;2.72;;;;;;;23.58;53.70;98190.22;4952343;29;20035;-50
2022/06/30 00:03:53;;;;;;;13.70;3.33;;;;;;;23.66;53.17;98187.66;4954333;28;20023;-49
2022/06/30 00:06:18;;;;;;;14.40;3.75;;;;;;;23.70;53.21;98182.47;4956303;29;20409;-50
2022/06/30 00:08:44;;;;;;;12.75;2.60;;;;;;;23.73;52.71;98185.38;4956291;29;20054;-50
2022/06/30 00:11:10;;;;;;;10.35;3.17;;;;;;;23.56;52.85;98181.69;4957603;28;20026;-49
2022/06/30 00:13:41;;;;;;;6.80;2.63;;;;;;;23.36;52.64;98180.19;4957494;28;20051;-50
2022/06/30 00:16:08;;;;;;;8.07;2.40;;;;;;;23.04;52.86;98181.84;4957533;28;20509;-49
2022/06/30 00:18:34;;;;;;;7.05;2.40;;;;;;;22.68;53.95;98179.75;4956140;29;20032;-49
2022/06/30 00:21:00;;;;;;;8.98;2.17;;;;;;;22.46;54.42;98185.69;4956216;29;20036;-50
2022/06/30 00:23:26;;;;;;;7.50;2.42;;;;;;;22.26;55.04;98186.78;4956040;29;20106;-48
2022/06/30 00:25:52;;;;;;;5.78;1.92;;;;;;;22.33;55.92;98184.53;4956016;29;20399;-49
2022/06/30 00:28:19;;;;;;;8.18;2.00;;;;;;;22.32;54.98;98175.72;4957309;28;20106;-49
2022/06/30 00:30:50;;;;;;;10.50;2.03;;;;;;;21.84;55.84;98172.34;4957070;28;20413;-49
2022/06/30 00:33:16;;;;;;;9.75;2.78;;;;;;;21.34;57.21;98173.41;4957135;28;20102;-50
2022/06/30 00:35:42;;;;;;;14.32;2.72;;;;;;;21.15;58.13;98177.91;4957161;28;20935;-49
2022/06/30 00:38:08;;;;;;;5.03;2.15;;;;;;;21.07;58.52;98173.16;4955810;29;20073;-49
2022/06/30 00:40:35;;;;;;;10.25;2.33;;;;;;;21.03;58.62;98172.16;4955753;29;20031;-49
2022/06/30 00:43:01;;;;;;;8.68;2.35;;;;;;;20.94;59.13;98175.38;4955727;29;20039;-49
2022/06/30 00:45:27;;;;;;;7.60;2.35;;;;;;;20.79;59.48;98178.22;4956967;28;20039;-49
2022/06/30 00:47:53;;;;;;;10.57;2.50;;;;;;;20.68;59.97;98174.81;4956934;28;20497;-49
2022/06/30 00:50:18;;;;;;;8.00;2.30;;;;;;;20.60;60.22;98174.63;4956841;29;20062;-50
2022/06/30 00:52:45;;;;;;;8.65;3.08;;;;;;;20.49;60.44;98169.34;4955515;29;20023;-49
2022/06/30 00:55:15;;;;;;;5.70;2.30;;;;;;;20.46;60.90;98177.09;4955469;29;20039;-49
2022/06/30 00:57:42;;;;;;;7.65;2.17;;;;;;;20.36;61.03;98175.28;4955457;29;20035;-49
2022/06/30 01:00:08;;;;;;;4.30;2.20;;;;;;;20.13;61.82;98182.88;4956733;28;20031;-49
2022/06/30 01:02:35;;;;;;;6.47;2.50;;;;;;;19.77;63.08;98176.16;4956616;28;20027;-49
2022/06/30 01:05:01;;;;;;;7.35;2.40;;;;;;;19.49;63.89;98173.00;4955309;29;20505;-49
2022/06/30 01:07:28;;;;;;;6.57;2.42;;;;;;;19.56;64.11;98168.22;4955304;29;20027;-49
2022/06/30 01:12:44;;;;;;;6.20;2.60;;;;;;;19.69;63.58;98156.16;4956459;29;20409;-49
2022/06/30 01:15:11;;;;;;;7.63;2.80;;;;;;;19.70;63.50;98155.91;4955068;28;20037;-49
2022/06/30 01:17:36;;;;;;;8.00;2.92;;;;;;;19.75;63.52;98155.91;4956418;28;20019;-49
2022/06/30 01:20:03;;;;;;;7.82;2.58;;;;;;;19.80;63.31;98152.44;4955004;29;20027;-49
2022/06/30 01:22:29;;;;;;;6.25;2.22;;;;;;;19.77;63.40;98158.28;4955006;29;20027;-49
2022/06/30 01:24:55;;;;;;;6.38;3.13;;;;;;;19.60;63.91;98157.78;4956273;28;20033;-49
2022/06/30 01:27:20;;;;;;;8.18;2.67;;;;;;;19.43;64.49;98158.13;4956162;28;20023;-49
2022/06/30 01:29:47;;;;;;;5.82;2.35;;;;;;;19.18;65.10;98149.16;4954640;29;20553;-49
2022/06/30 01:32:12;;;;;;;6.68;2.17;;;;;;;19.00;65.95;98163.81;4954769;29;20027;-49
2022/06/30 01:34:38;;;;;;;5.47;2.30;;;;;;;18.83;66.39;98168.59;4954801;29;20033;-49
2022/06/30 01:37:04;;;;;;;4.07;2.40;;;;;;;18.77;66.84;98173.09;4956014;29;20031;-49
2022/06/30 01:39:30;;;;;;;12.55;2.35;;;;;;;18.77;67.23;98181.06;4956063;28;20066;-49
2022/06/30 01:41:57;;;;;;;7.60;2.65;;;;;;;18.72;67.26;98183.72;4955970;28;20439;-49
2022/06/30 01:44:23;;;;;;;7.78;2.80;;;;;;;18.67;67.73;98184.53;4955973;28;20058;-49
2022/06/30 01:46:50;;;;;;;7.03;2.63;;;;;;;18.59;68.12;98185.03;4955876;29;20030;-49
2022/06/30 01:49:17;;;;;;;6.85;2.38;;;;;;;18.52;68.53;98193.28;4955834;28;20023;-49
2022/06/30 01:51:42;;;;;;;10.02;2.50;;;;;;;18.46;68.99;98190.88;4955795;28;20486;-49
2022/06/30 01:54:09;;;;;;;7.18;3.22;;;;;;;18.40;69.03;98202.56;4970546;28;20027;-49
2022/06/30 01:56:35;;;;;;;3.40;2.33;;;;;;;18.34;68.95;98202.53;4955679;28;20075;-49
2022/06/30 01:59:01;;;;;;;9.02;2.58;;;;;;;18.39;69.01;98208.94;4955616;28;20035;-49
2022/06/30 02:01:27;;;;;;;7.97;2.80;;;;;;;18.66;68.63;98211.38;4955638;28;20461;-49
2022/06/30 02:03:52;;;;;;;10.95;3.47;;;;;;;19.26;68.29;98211.66;4955646;29;20382;-49
2022/06/30 02:06:19;;;;;;;13.60;2.72;;;;;;;20.01;66.22;98210.94;4955485;28;20032;-49
2022/06/30 02:08:45;;;;;;;12.02;3.10;;;;;;;20.51;64.47;98204.50;4954239;29;20039;-49
2022/06/30 02:11:10;;;;;;;4.63;1.90;;;;;;;20.91;62.81;98207.19;4954100;29;20034;-49
2022/06/30 02:13:36;;;;;;;10.15;3.80;;;;;;;21.06;62.02;98207.03;4955291;29;20015;-49
2022/06/30 02:16:02;;;;;;;15.98;6.90;;;;;;;21.20;61.45;98217.06;4955302;28;20027;-50
2022/06/30 02:18:28;;;;;;;8.38;2.40;;;;;;;21.34;60.48;98213.44;4954005;29;20027;-49
2022/06/30 02:20:53;;;;;;;7.72;2.08;;;;;;;21.28;59.85;98216.47;4955276;29;20030;-49
2022/06/30 02:23:19;;;;;;;8.85;2.92;;;;;;;21.12;60.38;98215.81;4955228;28;20051;-49
2022/06/30 02:25:45;;;;;;;16.88;3.03;;;;;;;21.28;60.40;98217.25;4955168;29;20027;-50
2022/06/30 02:28:10;;;;;;;11.80;9.38;;;;;;;21.48;59.43;98221.63;4954633;28;20500;-49
2022/06/30 02:30:36;;;;;;;6.95;3.22;;;;;;;21.56;59.47;98222.88;4953622;29;20478;-49
2022/06/30 02:33:02;;;;;;;2.80;1.80;;;;;;;21.71;58.75;98214.72;4955010;28;20023;-49
2022/06/30 02:35:29;;;;;;;7.18;2.15;;;;;;;21.68;58.26;98227.81;4955050;28;20057;-49
2022/06/30 02:37:54;;;;;;;8.65;2.65;;;;;;;21.70;58.63;98223.78;4953687;29;20027;-50
2022/06/30 02:40:21;;;;;;;9.93;2.78;;;;;;;21.73;57.91;98223.22;4954894;28;20620;-49
2022/06/30 02:42:47;;;;;;;15.57;13.90;;;;;;;21.71;57.82;98225.38;4954948;28;20027;-50
2022/06/30 02:45:13;;;;;;;8.55;2.97;;;;;;;21.50;58.03;98230.13;4954768;28;20051;-49
2022/06/30 02:47:42;;;;;;;9.30;3.15;;;;;;;21.22;58.45;98229.03;4954778;28;20027;-49
2022/06/30 02:50:10;;;;;;;5.47;2.40;;;;;;;21.04;58.85;98229.75;4954655;28;20031;-49
2022/06/30 02:52:37;;;;;;;6.18;2.92;;;;;;;20.80;59.16;98227.00;4954634;28;20023;-49
2022/06/30 02:55:05;;;;;;;8.27;2.17;;;;;;;20.54;59.92;98227.97;4953312;29;20114;-49
2022/06/30 02:57:30;;;;;;;7.90;2.90;;;;;;;20.42;60.75;98234.69;4954549;28;20042;-49
2022/06/30 02:59:56;;;;;;;11.23;7.30;;;;;;;20.50;60.82;98234.91;4953265;29;20031;-50
2022/06/30 03:02:22;;;;;;;8.32;2.80;;;;;;;20.50;60.59;98234.09;4954474;28;20035;-49
2022/06/30 03:04:48;;;;;;;7.63;2.25;;;;;;;20.36;60.54;98236.56;4954451;28;20070;-50
2022/06/30 03:07:14;;;;;;;5.63;1.92;;;;;;;20.11;61.36;98240.97;4953098;29;20031;-49
2022/06/30 03:09:40;;;;;;;5.57;3.20;;;;;;;19.84;61.59;98236.03;4954409;28;20030;-49
2022/06/30 03:12:06;;;;;;;3.15;1.92;;;;;;;19.60;62.56;98235.81;4954256;28;20024;-49
2022/06/30 03:14:32;;;;;;;4.75;3.13;;;;;;;19.44;63.17;98243.03;4953032;29;20027;-49
2022/06/30 03:16:57;;;;;;;6.10;3.00;;;;;;;19.32;63.65;98242.50;4954218;29;20118;-49
2022/06/30 03:19:23;;;;;;;7.97;2.67;;;;;;;19.25;63.95;98241.97;4954284;29;20031;-49
2022/06/30 03:21:49;;;;;;;9.20;2.40;;;;;;;19.17;64.30;98251.28;4952854;29;20421;-49
2022/06/30 03:24:15;;;;;;;12.40;3.33;;;;;;;19.05;64.90;98254.22;4952865;29;20401;-49
2022/06/30 03:26:41;;;;;;;8.02;2.42;;;;;;;18.99;64.88;98251.81;4952835;29;20024;-49
2022/06/30 03:29:06;;;;;;;6.93;2.10;;;;;;;19.04;65.01;98254.50;4952784;29;20035;-49
2022/06/30 03:31:32;;;;;;;7.32;2.30;;;;;;;19.08;65.10;98247.59;4952546;29;20421;-49
2022/06/30 03:33:58;;;;;;;4.18;2.60;;;;;;;18.95;65.21;98252.38;4953955;28;20502;-49
2022/06/30 03:36:24;;;;;;;5.88;2.40;;;;;;;18.68;65.42;98249.91;4954029;28;20026;-49
2022/06/30 03:38:50;;;;;;;6.43;2.97;;;;;;;18.50;66.26;98267.16;4953126;28;20037;-49
2022/06/30 03:41:16;;;;;;;6.35;2.70;;;;;;;18.32;67.34;98259.66;4953973;29;20016;-49
2022/06/30 03:43:42;;;;;;;4.78;2.50;;;;;;;18.22;67.75;98263.09;4952563;29;20028;-49
2022/06/30 03:46:08;;;;;;;7.38;3.17;;;;;;;18.16;68.23;98270.22;4953848;29;20031;-48
2022/06/30 03:48:35;;;;;;;8.80;2.90;;;;;;;18.07;68.67;98268.31;4953869;28;20027;-49
2022/06/30 03:51:02;;;;;;;9.38;3.20;;;;;;;18.05;68.87;98270.44;4953794;29;20416;-49
2022/06/30 03:53:28;;;;;;;7.03;2.55;;;;;;;18.04;68.72;98284.78;4953704;28;20027;-48
2022/06/30 03:55:54;;;;;;;8.13;2.70;;;;;;;17.99;69.17;98277.59;4952389;29;20068;-49
2022/06/30 03:58:20;;;;;;;8.13;2.55;;;;;;;17.95;69.16;98281.84;4952490;29;20031;-49
2022/06/30 04:00:46;;;;;;;6.63;2.80;;;;;;;17.95;69.42;98279.19;4953627;29;20024;-49
2022/06/30 04:03:11;;;;;;;5.70;2.60;;;;;;;17.99;69.31;98284.75;4952408;29;20035;-49
2022/06/30 04:05:38;;;;;;;9.48;2.90;;;;;;;18.06;69.08;98288.78;4953687;29;20031;-49
2022/06/30 04:08:05;;;;;;;8.77;3.13;;;;;;;18.09;69.39;98287.44;4952330;29;20035;-49
2022/06/30 04:10:30;;;;;;;4.28;2.58;;;;;;;18.12;69.20;98290.41;4953617;29;20509;-49
2022/06/30 04:12:56;;;;;;;6.70;2.67;;;;;;;18.13;69.35;98288.56;4952326;29;20046;-50
2022/06/30 04:15:22;;;;;;;6.22;2.80;;;;;;;18.14;69.72;98280.31;4953636;28;20023;-49
2022/06/30 04:17:47;;;;;;;14.52;3.20;;;;;;;18.22;69.41;98286.19;4953601;28;20035;-49
2022/06/30 04:20:16;;;;;;;8.98;2.63;;;;;;;18.33;69.23;98285.16;4953557;29;20485;-49
2022/06/30 04:22:44;;;;;;;7.90;3.08;;;;;;;18.40;69.00;98287.59;4952227;29;20035;-49
2022/06/30 04:25:10;;;;;;;6.38;2.60;;;;;;;18.46;68.68;98282.03;4952250;29;20129;-49
2022/06/30 04:27:39;;;;;;;7.57;2.72;;;;;;;18.50;68.17;98274.34;4953532;28;20098;-49
2022/06/30 04:30:05;;;;;;;6.38;2.65;;;;;;;18.54;68.43;98272.75;4953200;28;20576;-49
2022/06/30 04:32:41;;;;;;;6.22;2.80;;;;;;;18.63;68.07;98278.34;4953409;28;20028;-49
2022/06/30 04:35:12;;;;;;;6.20;2.92;;;;;;;19.10;67.09;98272.06;4952197;29;20035;-49
2022/06/30 04:37:39;;;;;;;8.07;2.58;;;;;;;19.84;64.59;98264.50;4953492;28;20027;-49
2022/06/30 04:42:50;;;;;;;;;;;;;;;20.39;62.33;98262.69;4954044;29;20106;-49
2022/06/30 04:45:16;;;;;;;6.45;2.50;;;;;;;20.34;62.21;98262.72;4953360;28;19910;-49
2022/06/30 04:47:41;;;;;;;9.07;2.95;;;;;;;20.71;61.40;98266.81;4953295;28;20030;-49
2022/06/30 04:50:08;;;;;;;4.22;2.60;;;;;;;21.32;60.00;98260.97;4954147;28;20035;-50
2022/06/30 04:52:34;;;;;;;8.70;2.35;;;;;;;22.04;57.44;98256.81;4956828;28;20031;-49
2022/06/30 04:55:00;;;;;;;8.25;2.67;;;;;;;22.56;55.48;98254.25;4956803;28;20023;-49
2022/06/30 04:57:26;;;;;;;5.13;2.65;;;;;;;23.07;54.29;98251.63;4956790;28;20031;-49
2022/06/30 04:59:52;;;;;;;3.78;2.17;;;;;;;23.14;53.11;98251.28;4956743;28;20106;-50
2022/06/30 05:02:18;;;;;;;9.02;3.08;;;;;;;22.60;54.50;98256.09;4955374;29;20039;-49
2022/06/30 05:04:43;;;;;;;7.13;3.05;;;;;;;22.20;55.64;98257.41;4956631;29;20497;-49
2022/06/30 05:07:10;;;;;;;6.47;3.13;;;;;;;22.42;55.62;98263.03;4955321;29;20086;-49
2022/06/30 05:09:36;;;;;;;6.60;2.17;;;;;;;22.92;54.71;98271.41;4956855;28;20019;-49
2022/06/30 05:12:02;;;;;;;22.20;3.20;;;;;;;23.89;52.57;98266.28;4956375;28;20035;-49
2022/06/30 05:14:28;;;;;;;15.02;3.20;;;;;;;24.79;50.52;98267.63;4955299;29;20035;-50
2022/06/30 05:16:54;;;;;;;29.77;3.67;;;;;;;25.55;49.15;98267.66;4956438;28;20126;-48
2022/06/30 05:19:20;;;;;;;31.95;4.80;;;;;;;26.84;46.73;98265.63;4955072;29;20027;-50
2022/06/30 05:21:45;;;;;;;23.13;3.70;;;;;;;28.10;43.63;98270.81;4956330;29;20557;-50
2022/06/30 05:26:55;;;;;;;27.15;4.22;;;;;;;29.68;39.94;98268.38;4956285;29;20043;-50
2022/06/30 05:29:21;;;;;;;18.13;3.22;;;;;;;30.06;39.74;98257.22;4954742;29;20031;-50
2022/06/30 05:31:46;;;;;;;14.73;3.17;;;;;;;30.27;38.90;98257.06;4956073;29;20051;-50
2022/06/30 05:34:12;;;;;;;31.95;5.20;;;;;;;29.36;40.30;98257.28;4956060;29;20027;-50
2022/06/30 05:36:38;;;;;;;13.25;4.10;;;;;;;28.87;40.82;98263.28;4956048;29;20453;-49
2022/06/30 05:39:03;;;;;;;9.52;2.65;;;;;;;29.28;40.49;98260.88;4954745;29;20059;-50
2022/06/30 05:41:29;;;;;;;20.05;2.88;;;;;;;30.29;38.89;98264.06;4956011;28;20022;-50
2022/06/30 05:43:55;;;;;;;17.42;3.58;;;;;;;31.70;36.35;98237.69;4955982;28;20059;-50
2022/06/30 05:46:21;;;;;;;12.05;3.42;;;;;;;32.70;33.83;98235.59;4954534;29;20019;-50
2022/06/30 05:48:46;;;;;;;26.77;4.03;;;;;;;33.04;33.58;98229.28;4956127;29;20565;-50
2022/06/30 05:51:12;;;;;;;19.70;3.03;;;;;;;33.33;33.34;98237.97;4955812;29;20050;-50
2022/06/30 05:53:38;;;;;;;19.60;3.35;;;;;;;33.57;32.23;98230.59;4955697;28;20478;-50
2022/06/30 05:56:04;;;;;;;12.43;3.50;;;;;;;33.83;32.27;98236.06;4955725;29;20425;-50
2022/06/30 05:58:30;;;;;;;17.23;3.00;;;;;;;34.07;31.42;98230.53;4954389;29;20031;-50
2022/06/30 06:00:56;;;;;;;19.30;4.15;;;;;;;34.74;30.78;98232.63;4955415;28;20026;-50
2022/06/30 06:03:22;;;;;;;10.93;3.10;;;;;;;35.27;29.47;98228.88;4954929;29;20035;-50
2022/06/30 06:05:47;;;;;;;6.68;2.28;;;;;;;35.59;28.46;98218.22;4955520;28;20031;-50
2022/06/30 06:08:13;;;;;;;21.13;3.30;;;;;;;35.94;28.20;98216.88;4955514;29;20023;-49
2022/06/30 06:10:39;;;;;;;19.77;3.53;;;;;;;36.71;27.00;98203.22;4955452;28;20015;-50
2022/06/30 06:13:07;;;;;;;16.52;3.10;;;;;;;36.63;27.43;98199.69;4954093;29;20505;-50
2022/06/30 06:15:32;;;;;;;12.40;3.47;;;;;;;35.25;29.01;98198.44;4955354;28;20023;-49
2022/06/30 06:17:58;;;;;;;16.00;2.78;;;;;;;35.22;28.96;98201.94;4955536;28;20027;-50
2022/06/30 06:20:24;;;;;;;14.13;2.80;;;;;;;35.12;29.15;98211.56;4955262;28;20401;-50
2022/06/30 06:22:50;;;;;;;15.98;4.10;;;;;;;33.86;30.72;98199.16;4955208;28;20114;-49
2022/06/30 06:25:17;;;;;;;16.20;3.60;;;;;;;33.05;32.51;98189.28;4955140;29;20034;-50
2022/06/30 06:29:05;;;;;;;23.52;3.60;;;;;;;33.51;31.92;98189.28;4969866;28;20172;-50
2022/06/30 06:30:29;;;;;;;19.52;2.90;;;;;;;33.75;31.58;98182.66;4954769;29;20133;-49
2022/06/30 06:32:55;;;;;;;31.95;4.47;;;;;;;35.11;30.17;98180.75;4954886;28;20027;-50
2022/06/30 06:35:20;;;;;;;41.10;4.25;;;;;;;34.87;32.26;98184.81;4954924;29;20023;-50
2022/06/30 06:37:46;;;;;;;26.15;4.07;;;;;;;34.09;33.85;98179.22;4954892;29;20558;-50
2022/06/30 06:40:12;;;;;;;18.75;3.45;;;;;;;34.71;31.19;98168.72;4954827;29;20425;-49
2022/06/30 06:42:38;;;;;;;18.52;2.88;;;;;;;34.04;31.30;98161.25;4954796;28;20023;-49
2022/06/30 06:45:04;;;;;;;15.82;3.03;;;;;;;32.75;33.40;98162.72;4954755;28;20608;-50
2022/06/30 06:47:31;;;;;;;21.85;3.33;;;;;;;31.64;34.70;98163.94;4954706;28;20030;-49
2022/06/30 06:49:57;;;;;;;29.80;5.20;;;;;;;31.03;35.76;98167.09;4953534;29;20026;-50
2022/06/30 06:52:22;;;;;;;16.40;3.10;;;;;;;32.33;33.83;98168.91;4954497;29;20517;-50
2022/06/30 06:54:48;;;;;;;15.68;3.20;;;;;;;34.18;30.52;98155.25;4953302;29;20524;-50
2022/06/30 06:57:14;;;;;;;22.02;3.75;;;;;;;36.05;27.49;98154.16;4954625;29;20023;-50
2022/06/30 06:59:39;;;;;;;8.18;2.38;;;;;;;35.93;27.16;98158.75;4954552;29;20027;-50
2022/06/30 07:02:06;;;;;;;18.75;3.22;;;;;;;34.40;28.79;98151.63;4953172;29;20118;-50
2022/06/30 07:04:32;;;;;;;14.65;3.58;;;;;;;32.73;30.63;98162.31;4954501;28;20036;-49
2022/06/30 07:06:58;;;;;;;32.78;5.45;;;;;;;31.67;32.66;98156.22;4954450;28;20402;-49
2022/06/30 07:09:23;;;;;;;16.40;3.05;;;;;;;33.03;31.13;98151.56;4954446;29;20023;-50
2022/06/30 07:11:49;;;;;;;39.25;5.00;;;;;;;35.39;29.06;98154.91;4954350;29;20022;-49
2022/06/30 07:14:15;;;;;;;33.40;3.85;;;;;;;37.23;26.27;98139.97;4952786;28;20031;-50
2022/06/30 07:16:40;;;;;;;27.73;3.28;;;;;;;38.24;25.03;98140.53;4954252;29;20023;-50
2022/06/30 07:19:06;;;;;;;10.35;2.92;;;;;;;38.57;24.86;98136.44;4953022;29;20031;-50
2022/06/30 07:21:32;;;;;;;10.75;2.55;;;;;;;38.85;24.37;98146.44;4954188;29;20509;-51
2022/06/30 07:23:57;;;;;;;13.27;3.15;;;;;;;38.88;24.29;98151.13;4952981;29;20047;-51
2022/06/30 07:26:23;;;;;;;10.90;2.45;;;;;;;38.91;24.42;98139.34;4954443;29;20023;-51
2022/06/30 07:28:49;;;;;;;12.40;2.90;;;;;;;38.99;24.00;98140.09;4954102;29;20054;-51
2022/06/30 07:31:15;;;;;;;12.07;2.53;;;;;;;38.90;24.08;98148.00;4953813;28;20405;-51
2022/06/30 07:33:42;;;;;;;12.60;2.60;;;;;;;38.83;23.82;98146.06;4953940;29;20103;-51
2022/06/30 07:36:09;;;;;;;8.70;3.33;;;;;;;38.83;23.77;98145.28;4953986;28;20034;-51
2022/06/30 07:38:34;;;;;;;11.85;2.50;;;;;;;39.37;23.78;98137.41;4953945;28;20023;-48
2022/06/30 07:41:00;;;;;;;8.00;2.10;;;;;;;39.54;23.44;98136.50;4953940;29;20519;-50
2022/06/30 07:43:26;;;;;;;11.13;2.70;;;;;;;39.50;23.27;98144.00;4953888;28;20023;-51
2022/06/30 07:45:52;;;;;;;37.00;5.40;;;;;;;39.51;23.78;98137.28;4953897;28;20034;-50
2022/06/30 07:48:19;;;;;;;26.90;3.83;;;;;;;39.63;23.35;98127.00;4953777;28;20389;-51
2022/06/30 07:50:45;;;;;;;22.52;3.35;;;;;;;40.08;22.71;98118.63;4953780;28;20027;-50
2022/06/30 07:53:11;;;;;;;9.48;2.83;;;;;;;40.52;21.97;98119.59;4953719;28;20062;-51
2022/06/30 07:55:37;;;;;;;27.42;4.40;;;;;;;40.97;21.76;98111.06;4953753;29;20103;-51
2022/06/30 07:58:04;;;;;;;11.07;2.75;;;;;;;41.26;21.19;98122.38;4953788;28;20025;-51
2022/06/30 08:00:29;;;;;;;16.80;2.60;;;;;;;41.88;20.40;98122.03;4953704;28;20031;-51
2022/06/30 08:02:55;;;;;;;10.70;2.22;;;;;;;42.48;19.93;98116.44;4953756;29;20015;-51
2022/06/30 08:05:21;;;;;;;10.75;3.03;;;;;;;42.88;19.49;98119.06;4953662;29;20512;-52
2022/06/30 08:07:47;;;;;;;7.25;2.20;;;;;;;42.80;19.65;98114.88;4952515;29;20043;-52
2022/06/30 08:10:12;;;;;;;13.73;2.63;;;;;;;43.05;18.99;98115.09;4953660;28;20038;-52
2022/06/30 08:12:38;;;;;;;10.65;2.50;;;;;;;43.57;18.80;98118.06;4952214;29;20024;-53
2022/06/30 08:15:04;;;;;;;7.28;2.20;;;;;;;43.46;18.59;98112.84;4952382;29;20068;-52
2022/06/30 08:17:31;;;;;;;8.77;2.35;;;;;;;43.44;18.37;98116.03;4953641;28;20520;-52
2022/06/30 08:19:58;;;;;;;6.50;2.42;;;;;;;43.82;18.10;98104.34;4953501;28;20034;-52
2022/06/30 08:22:24;;;;;;;15.45;3.05;;;;;;;44.40;17.66;98111.75;4953509;28;20023;-52
2022/06/30 08:24:51;;;;;;;12.02;2.22;;;;;;;44.14;17.74;98102.66;4952755;28;20023;-52
2022/06/30 08:27:16;;;;;;;6.10;2.13;;;;;;;44.26;17.94;98107.41;4957362;28;20385;-52
2022/06/30 08:29:42;;;;;;;10.25;2.30;;;;;;;44.08;18.25;98107.19;4957214;29;20051;-51
2022/06/30 08:32:09;;;;;;;8.90;2.83;;;;;;;43.37;18.55;98109.97;4955949;29;20562;-52
2022/06/30 08:34:34;;;;;;;9.38;2.40;;;;;;;42.93;19.00;98109.50;4957225;28;20418;-52
2022/06/30 08:37:00;;;;;;;7.18;2.05;;;;;;;43.29;18.76;98104.63;4957154;29;20028;-53
2022/06/30 08:42:12;;;;;;;14.85;2.80;;;;;;;43.57;18.56;98113.34;4957355;29;20058;-52
2022/06/30 08:44:41;;;;;;;11.32;2.70;;;;;;;43.14;18.45;98119.22;4955698;29;20394;-52
2022/06/30 08:47:08;;;;;;;11.30;2.17;;;;;;;42.65;18.92;98123.53;4956991;28;20106;-52
2022/06/30 08:49:35;;;;;;;3.90;2.10;;;;;;;41.90;19.90;98125.91;4956938;28;20035;-52
2022/06/30 08:52:01;;;;;;;11.43;2.25;;;;;;;41.77;20.16;98125.00;4955460;29;20023;-53
2022/06/30 08:54:28;;;;;;;19.70;3.00;;;;;;;41.16;20.73;98117.81;4939572;29;20034;-53
2022/06/30 08:56:57;;;;;;;16.05;3.83;;;;;;;41.14;21.14;98128.47;4956810;28;20114;-52
2022/06/30 08:59:24;;;;;;;12.70;2.28;;;;;;;41.06;20.73;98132.53;4955433;29;20028;-53
2022/06/30 09:01:50;;;;;;;5.32;1.95;;;;;;;41.08;20.68;98135.66;4955459;29;20078;-52
2022/06/30 09:04:16;;;;;;;8.15;1.83;;;;;;;41.55;19.88;98127.34;4956715;28;20031;-52
2022/06/30 09:06:45;;;;;;;5.78;2.28;;;;;;;41.19;20.25;98127.22;4955292;29;20031;-53
2022/06/30 09:09:11;;;;;;;6.25;2.42;;;;;;;40.53;20.54;98121.19;4956624;28;20090;-53
2022/06/30 09:11:51;;;;;;;13.90;2.33;;;;;;;39.43;22.09;98119.34;4956544;28;20035;-52
2022/06/30 09:14:35;;;;;;;12.40;2.50;;;;;;;39.14;22.62;98133.31;4956491;28;20028;-52
2022/06/30 09:17:02;;;;;;;11.20;2.25;;;;;;;39.37;22.11;98126.44;4971560;28;20032;-51
2022/06/30 09:19:29;;;;;;;9.02;1.80;;;;;;;40.14;21.54;98119.72;4955100;29;20469;-52
2022/06/30 09:22:05;;;;;;;11.65;1.88;;;;;;;40.72;20.54;98120.47;4955071;29;20413;-52
2022/06/30 09:24:31;;;;;;;5.57;1.92;;;;;;;40.34;21.07;98117.88;4956370;28;20019;-52
2022/06/30 09:27:20;;;;;;;7.15;2.25;;;;;;;40.48;20.63;98110.63;4954997;29;20042;-52
2022/06/30 09:29:50;;;;;;;17.10;2.50;;;;;;;41.55;20.19;98107.31;4956103;28;20065;-51
2022/06/30 09:32:17;;;;;;;8.93;2.20;;;;;;;42.41;18.96;98113.81;4954791;29;20408;-52
2022/06/30 09:34:43;;;;;;;6.70;1.98;;;;;;;42.87;18.81;98104.47;4938989;29;20462;-52
2022/06/30 09:37:23;;;;;;;23.92;3.40;;;;;;;43.27;18.53;98093.22;4954760;28;20106;-52
2022/06/30 09:39:55;;;;;;;16.45;2.92;;;;;;;43.98;18.05;98108.25;4954793;29;20121;-52
2022/06/30 09:42:43;;;;;;;9.60;2.70;;;;;;;43.74;18.13;98096.72;4956079;28;20481;-53
2022/06/30 09:45:15;;;;;;;9.10;2.40;;;;;;;44.34;17.43;98093.38;4955950;28;20038;-52
2022/06/30 09:47:55;;;;;;;10.23;2.03;;;;;;;45.37;16.72;98093.97;4956009;28;20031;-53
2022/06/30 09:50:21;;;;;;;14.00;2.88;;;;;;;46.05;16.25;98088.72;4954553;29;20026;-53
2022/06/30 09:53:13;;;;;;;6.32;1.73;;;;;;;46.72;15.73;98097.59;4955715;28;20027;-52
2022/06/30 09:55:49;;;;;;;12.18;2.70;;;;;;;47.28;15.38;98096.44;4970732;28;20046;-53
2022/06/30 09:58:35;;;;;;;11.18;2.08;;;;;;;47.17;14.98;98090.56;4955696;28;20024;-53
2022/06/30 10:01:02;;;;;;;9.73;2.03;;;;;;;46.67;15.56;98092.63;4954432;29;20117;-53
2022/06/30 10:03:28;;;;;;;8.15;1.60;;;;;;;46.48;15.54;98095.38;4955686;28;20043;-52
2022/06/30 10:06:12;;;;;;;6.45;1.65;;;;;;;46.66;15.50;98096.66;4954252;29;20163;-52
2022/06/30 10:08:38;;;;;;;6.88;1.67;;;;;;;46.57;15.38;98084.31;4955589;28;20118;-53
2022/06/30 10:11:05;;;;;;;5.05;1.67;;;;;;;46.47;15.67;98091.06;4954200;29;20458;-53
2022/06/30 10:13:35;;;;;;;5.05;1.80;;;;;;;45.99;16.27;98093.28;4955356;28;20489;-53
2022/06/30 10:16:03;;;;;;;8.75;1.92;;;;;;;45.85;16.35;98095.38;4955772;28;20110;-53
2022/06/30 10:18:32;;;;;;;3.05;1.55;;;;;;;45.41;16.52;98091.84;4955352;28;20050;-53
2022/06/30 10:20:58;;;;;;;6.30;1.70;;;;;;;45.33;16.83;98096.88;4955221;28;20490;-52
2022/06/30 10:23:25;;;;;;;4.88;1.67;;;;;;;45.03;16.91;98101.81;4953899;29;20110;-53
2022/06/30 10:25:52;;;;;;;23.73;4.15;;;;;;;44.65;17.92;98093.56;4955177;28;20019;-53
2022/06/30 10:28:21;;;;;;;12.43;2.85;;;;;;;44.90;17.35;98092.78;4955186;28;20497;-53
2022/06/30 10:31:02;;;;;;;6.40;1.88;;;;;;;44.84;17.47;98097.31;4953533;29;20066;-54
2022/06/30 10:33:52;;;;;;;10.88;1.77;;;;;;;44.91;17.15;98096.31;4955006;28;20035;-53
2022/06/30 10:36:29;;;;;;;6.80;2.28;;;;;;;44.73;17.22;98094.88;4955089;28;20039;-52
2022/06/30 10:39:07;;;;;;;9.35;1.70;;;;;;;44.49;17.63;98096.47;4955058;28;20109;-52
2022/06/30 10:41:43;;;;;;;8.18;2.10;;;;;;;44.39;17.70;98095.56;4954979;28;20023;-53
2022/06/30 10:44:15;;;;;;;8.95;1.77;;;;;;;44.29;17.29;98094.69;4954880;28;20094;-53
2022/06/30 10:46:52;;;;;;;5.60;1.73;;;;;;;43.99;17.70;98093.22;4954908;28;20039;-53
2022/06/30 10:49:20;;;;;;;6.80;1.88;;;;;;;43.05;18.52;98090.22;4954376;28;20051;-52
2022/06/30 10:51:46;;;;;;;4.10;1.63;;;;;;;42.67;19.22;98089.97;4954704;28;20058;-53
2022/06/30 10:54:29;;;;;;;6.25;1.92;;;;;;;42.39;19.16;98088.66;4953357;29;20055;-53
2022/06/30 10:56:56;;;;;;;11.65;2.45;;;;;;;42.08;19.75;98088.97;4953523;29;20023;-52
2022/06/30 10:59:50;;;;;;;6.53;1.50;;;;;;;41.50;20.10;98087.31;4954633;28;20034;-53
2022/06/30 11:02:16;;;;;;;2.92;1.25;;;;;;;40.82;19.81;98101.50;4937163;29;20462;-52
2022/06/30 11:04:50;;;;;;;7.68;1.70;;;;;;;40.10;19.69;98097.00;4954531;28;20057;-52
2022/06/30 11:07:24;;;;;;;13.85;1.52;;;;;;;38.76;19.86;98099.50;4954511;28;20035;-51
2022/06/30 11:09:55;;;;;;;8.45;1.73;;;;;;;37.69;20.78;98089.84;4937416;29;20023;-50
2022/06/30 11:12:43;;;;;;;6.82;1.48;;;;;;;37.09;21.92;98078.59;4953011;29;20031;-50
2022/06/30 11:15:10;;;;;;;13.85;2.30;;;;;;;36.94;22.44;98082.50;4944136;28;20027;-48
2022/06/30 11:17:39;;;;;;;46.85;4.63;;;;;;;37.21;22.79;98082.91;4954292;28;20035;-47
2022/06/30 11:20:10;;;;;;;19.10;2.70;;;;;;;37.28;22.39;98080.16;4954227;28;20029;-48
2022/06/30 11:22:36;;;;;;;8.13;1.95;;;;;;;37.20;22.76;98078.59;4954254;28;20027;-48
2022/06/30 11:25:05;;;;;;;7.40;2.03;;;;;;;37.27;22.42;98080.53;4954184;28;20030;-48
2022/06/30 11:27:36;;;;;;;3.75;1.45;;;;;;;37.34;22.68;98086.00;4954155;28;20031;-50
2022/06/30 11:30:10;;;;;;;9.25;2.15;;;;;;;37.52;22.89;98085.97;4953954;28;20043;-50
2022/06/30 11:32:37;;;;;;;7.40;1.75;;;;;;;38.00;22.42;98088.16;4954044;28;20027;-51
2022/06/30 11:35:04;;;;;;;7.32;1.75;;;;;;;38.59;21.11;98079.25;4968867;28;20030;-50
2022/06/30 11:37:33;;;;;;;7.43;1.60;;;;;;;39.02;21.50;98086.38;4952744;29;20030;-50
2022/06/30 11:40:13;;;;;;;6.95;1.90;;;;;;;39.36;20.04;98069.94;4954055;28;20441;-50
2022/06/30 11:42:39;;;;;;;7.40;1.90;;;;;;;39.60;20.64;98083.84;4954005;28;20039;-51